Time;durP1;ratioP1;P1;durP2;ratioP2;P2;SDS_P1;SDS_P2;PMS_P1;PMS_P2;Temp;Humidity;BMP_temperature;BMP_pressure;BME280_temperature;BME280_humidity;BME280_pressure;Samples;Min_cycle;Max_cycle;Signal;HPM_P1;HPM_P2
2023/10/22 00:00:17;;;;;;;22.95;11.38;;;;;;;;;;5112275;28;20222;-35
2023/10/22 00:03:04;;;;;;;19.35;9.52;;;;;;;;;;5113033;28;20258;-36
2023/10/22 00:05:31;;;;;;;27.63;12.15;;;;;;;;;;5112160;28;20212;-32
2023/10/22 00:07:59;;;;;;;16.58;9.20;;;;;;;;;;5112370;28;20293;-31
2023/10/22 00:10:27;;;;;;;19.75;9.90;;;;;;;;;;5112293;28;20258;-34
2023/10/22 00:12:54;;;;;;;21.95;10.93;;;;;;;;;;5112069;28;20281;-31
2023/10/22 00:15:21;;;;;;;21.42;11.45;;;;;;;;;;5112495;28;20201;-30
2023/10/22 00:17:48;;;;;;;22.27;11.25;;;;;;;;;;5112042;28;20285;-33
2023/10/22 00:20:16;;;;;;;19.35;10.20;;;;;;;;;;5111861;28;20226;-28
2023/10/22 00:22:43;;;;;;;23.33;10.38;;;;;;;;;;5111919;28;20617;-36
2023/10/22 00:25:10;;;;;;;23.48;9.18;;;;;;;;;;5111817;28;20201;-31
2023/10/22 00:27:37;;;;;;;16.30;9.43;;;;;;;;;;5111848;28;20237;-30
2023/10/22 00:30:05;;;;;;;16.52;10.45;;;;;;;;;;5110581;28;20201;-34
2023/10/22 00:32:32;;;;;;;17.38;10.40;;;;;;;;;;5111988;28;20198;-33
2023/10/22 00:35:00;;;;;;;18.60;11.57;;;;;;;;;;5111803;28;20654;-29
2023/10/22 00:37:27;;;;;;;20.05;9.85;;;;;;;;;;5110868;28;20258;-38
2023/10/22 00:39:54;;;;;;;19.70;11.43;;;;;;;;;;5110488;28;20694;-32
2023/10/22 00:42:22;;;;;;;19.75;9.95;;;;;;;;;;5110744;28;20646;-35
2023/10/22 00:44:50;;;;;;;21.42;10.82;;;;;;;;;;5111743;28;20244;-30
2023/10/22 00:47:17;;;;;;;17.88;10.32;;;;;;;;;;5110591;28;20210;-37
2023/10/22 00:49:45;;;;;;;21.23;10.60;;;;;;;;;;5110392;28;20575;-34
2023/10/22 00:52:14;;;;;;;17.08;10.43;;;;;;;;;;5112039;28;20202;-32
2023/10/22 00:54:42;;;;;;;17.40;10.10;;;;;;;;;;5110585;28;20259;-34
2023/10/22 00:57:09;;;;;;;20.48;10.85;;;;;;;;;;5110546;28;20206;-33
2023/10/22 00:59:37;;;;;;;19.88;10.90;;;;;;;;;;5111631;28;20233;-34
2023/10/22 01:02:04;;;;;;;19.65;9.93;;;;;;;;;;5093618;28;20655;-36
2023/10/22 01:04:32;;;;;;;20.77;11.13;;;;;;;;;;5111690;28;20208;-36
2023/10/22 01:06:59;;;;;;;21.95;10.98;;;;;;;;;;5111778;28;20204;-33
2023/10/22 01:09:26;;;;;;;17.17;10.20;;;;;;;;;;5110246;28;20217;-41
2023/10/22 01:12:02;;;;;;;22.60;10.63;;;;;;;;;;5110374;28;20208;-46
2023/10/22 01:14:30;;;;;;;18.80;10.70;;;;;;;;;;5111563;28;20291;-36
2023/10/22 01:16:57;;;;;;;18.10;11.07;;;;;;;;;;5111503;28;20195;-31
2023/10/22 01:19:25;;;;;;;21.05;10.10;;;;;;;;;;5110394;28;20788;-38
2023/10/22 01:21:52;;;;;;;17.73;10.32;;;;;;;;;;5110421;28;20262;-32
2023/10/22 01:24:20;;;;;;;18.13;10.10;;;;;;;;;;5112661;28;20213;-35
2023/10/22 01:26:47;;;;;;;17.65;10.10;;;;;;;;;;5113785;28;20236;-32
2023/10/22 01:29:14;;;;;;;15.00;9.65;;;;;;;;;;5114006;28;20202;-33
2023/10/22 01:31:41;;;;;;;19.35;10.35;;;;;;;;;;5113963;28;20316;-30
2023/10/22 01:34:08;;;;;;;21.25;9.80;;;;;;;;;;5115376;28;20209;-32
2023/10/22 01:36:35;;;;;;;15.27;10.20;;;;;;;;;;5113664;28;20646;-35
2023/10/22 01:39:03;;;;;;;13.85;9.70;;;;;;;;;;5114849;28;20225;-35
2023/10/22 01:41:30;;;;;;;16.35;9.88;;;;;;;;;;5114746;28;20650;-31
2023/10/22 01:43:59;;;;;;;14.73;9.10;;;;;;;;;;5114690;28;20202;-36
2023/10/22 01:46:26;;;;;;;16.05;9.60;;;;;;;;;;5113368;28;20194;-31
2023/10/22 01:48:53;;;;;;;15.05;9.75;;;;;;;;;;5114898;28;20213;-37
2023/10/22 01:51:21;;;;;;;15.10;9.60;;;;;;;;;;5115052;28;20209;-32
2023/10/22 01:53:49;;;;;;;15.82;9.68;;;;;;;;;;5114720;28;20209;-31
2023/10/22 01:56:16;;;;;;;15.30;8.90;;;;;;;;;;5113200;28;20208;-33
2023/10/22 01:58:47;;;;;;;15.40;10.18;;;;;;;;;;5114635;28;20194;-32
2023/10/22 02:01:14;;;;;;;17.58;10.40;;;;;;;;;;5113352;28;20255;-43
2023/10/22 02:03:45;;;;;;;18.08;10.68;;;;;;;;;;5114743;28;20198;-34
2023/10/22 02:06:14;;;;;;;14.90;9.02;;;;;;;;;;5113146;28;20267;-34
2023/10/22 02:08:41;;;;;;;19.38;11.30;;;;;;;;;;5114691;28;20209;-47
2023/10/22 02:11:09;;;;;;;18.55;10.70;;;;;;;;;;5114660;28;20193;-37
2023/10/22 02:13:37;;;;;;;15.05;9.70;;;;;;;;;;5113257;28;20198;-33
2023/10/22 02:16:05;;;;;;;19.15;10.93;;;;;;;;;;5112841;28;20205;-32
2023/10/22 02:18:34;;;;;;;18.13;11.45;;;;;;;;;;5114436;28;20201;-35
2023/10/22 02:21:03;;;;;;;14.10;9.48;;;;;;;;;;5112770;28;20701;-32
2023/10/22 02:23:31;;;;;;;14.48;9.48;;;;;;;;;;5112816;28;20213;-34
2023/10/22 02:25:58;;;;;;;16.95;10.20;;;;;;;;;;5113690;28;20222;-33
2023/10/22 02:28:25;;;;;;;17.50;10.13;;;;;;;;;;5113001;28;20264;-47
2023/10/22 02:30:52;;;;;;;16.95;9.48;;;;;;;;;;5113897;28;20297;-33
2023/10/22 02:33:19;;;;;;;17.70;10.07;;;;;;;;;;5113799;28;20263;-33
2023/10/22 02:35:46;;;;;;;14.40;9.52;;;;;;;;;;5112444;28;20501;-33
2023/10/22 02:38:16;;;;;;;18.02;10.30;;;;;;;;;;5114183;28;20202;-46
2023/10/22 02:40:45;;;;;;;14.15;9.93;;;;;;;;;;5112440;28;20226;-35
2023/10/22 02:43:12;;;;;;;14.13;9.60;;;;;;;;;;5113974;28;20267;-28
2023/10/22 02:45:53;;;;;;;14.02;9.38;;;;;;;;;;5112442;28;20727;-36
2023/10/22 02:48:20;;;;;;;15.05;9.50;;;;;;;;;;5113497;28;20197;-34
2023/10/22 02:50:47;;;;;;;19.95;10.00;;;;;;;;;;5113441;27;20613;-40
2023/10/22 02:53:16;;;;;;;13.60;9.35;;;;;;;;;;5112371;28;20202;-47
2023/10/22 02:55:43;;;;;;;15.15;9.38;;;;;;;;;;5113520;28;20201;-29
2023/10/22 02:58:10;;;;;;;13.63;9.40;;;;;;;;;;5113498;28;20258;-31
2023/10/22 03:00:37;;;;;;;14.13;9.10;;;;;;;;;;5113574;28;20228;-36
2023/10/22 03:03:05;;;;;;;15.43;9.30;;;;;;;;;;5113626;28;20202;-35
2023/10/22 03:05:34;;;;;;;15.05;9.07;;;;;;;;;;5113422;28;20201;-34
2023/10/22 03:08:03;;;;;;;13.73;8.73;;;;;;;;;;5113079;28;20210;-36
2023/10/22 03:10:30;;;;;;;15.27;9.35;;;;;;;;;;5113240;28;20607;-32
2023/10/22 03:12:59;;;;;;;15.60;9.48;;;;;;;;;;5113534;28;20554;-37
2023/10/22 03:15:27;;;;;;;15.40;10.07;;;;;;;;;;5112922;28;20209;-31
2023/10/22 03:17:56;;;;;;;14.63;9.57;;;;;;;;;;5113183;28;20212;-34
2023/10/22 03:20:25;;;;;;;15.52;9.32;;;;;;;;;;5112989;28;20225;-38
2023/10/22 03:22:53;;;;;;;17.65;10.48;;;;;;;;;;5111839;28;20696;-35
2023/10/22 03:25:21;;;;;;;13.75;9.68;;;;;;;;;;5111607;28;20721;-43
2023/10/22 03:27:49;;;;;;;14.10;9.25;;;;;;;;;;5112806;28;20848;-35
2023/10/22 03:30:17;;;;;;;17.35;10.30;;;;;;;;;;5112707;28;20729;-38
2023/10/22 03:32:45;;;;;;;16.50;9.70;;;;;;;;;;5112810;28;20201;-32
2023/10/22 03:35:13;;;;;;;13.65;9.00;;;;;;;;;;5111376;28;20255;-32
2023/10/22 03:37:41;;;;;;;15.75;9.68;;;;;;;;;;5112777;28;20209;-32
2023/10/22 03:40:09;;;;;;;13.20;9.07;;;;;;;;;;5112519;28;20218;-41
2023/10/22 03:42:37;;;;;;;14.57;9.90;;;;;;;;;;5111233;28;20201;-35
2023/10/22 03:45:06;;;;;;;17.85;10.45;;;;;;;;;;5112605;28;20209;-32
2023/10/22 03:47:33;;;;;;;14.60;9.18;;;;;;;;;;5111162;28;20249;-31
2023/10/22 03:50:01;;;;;;;18.45;9.50;;;;;;;;;;5112377;28;20247;-32
2023/10/22 03:52:29;;;;;;;15.32;10.25;;;;;;;;;;5112994;28;20208;-39
2023/10/22 03:54:57;;;;;;;18.48;10.23;;;;;;;;;;5112305;28;20198;-37
2023/10/22 03:57:25;;;;;;;15.75;10.27;;;;;;;;;;5112541;28;20201;-32
2023/10/22 03:59:52;;;;;;;16.13;9.73;;;;;;;;;;5112423;27;20210;-34
2023/10/22 04:02:20;;;;;;;15.85;9.93;;;;;;;;;;5112294;28;20638;-44
2023/10/22 04:04:48;;;;;;;15.70;10.05;;;;;;;;;;5112227;28;20266;-33
2023/10/22 04:07:15;;;;;;;16.23;10.23;;;;;;;;;;5112195;28;20206;-35
2023/10/22 04:09:42;;;;;;;13.55;9.10;;;;;;;;;;5112180;28;20564;-31
2023/10/22 04:12:14;;;;;;;12.23;8.70;;;;;;;;;;5112180;28;20451;-30
2023/10/22 04:14:41;;;;;;;13.68;9.52;;;;;;;;;;5112236;28;20201;-34
2023/10/22 04:17:08;;;;;;;14.38;9.68;;;;;;;;;;5092819;28;20571;-35
2023/10/22 04:19:35;;;;;;;15.93;9.48;;;;;;;;;;5112157;28;20217;-35
2023/10/22 04:22:03;;;;;;;15.48;9.60;;;;;;;;;;5111920;28;20656;-31
2023/10/22 04:24:30;;;;;;;15.80;9.55;;;;;;;;;;5112231;28;20229;-34
2023/10/22 04:26:58;;;;;;;16.95;10.50;;;;;;;;;;5112161;28;20237;-42
2023/10/22 04:29:25;;;;;;;15.55;10.20;;;;;;;;;;5110624;28;20198;-43
2023/10/22 04:31:52;;;;;;;15.63;9.95;;;;;;;;;;5111155;28;20209;-32
2023/10/22 04:34:19;;;;;;;18.00;11.07;;;;;;;;;;5111987;28;20231;-30
2023/10/22 04:36:47;;;;;;;20.42;10.48;;;;;;;;;;5111053;28;20198;-27
2023/10/22 04:39:14;;;;;;;15.45;10.48;;;;;;;;;;5111711;28;20194;-38
2023/10/22 04:41:42;;;;;;;15.35;10.40;;;;;;;;;;5111231;28;20266;-38
2023/10/22 04:44:09;;;;;;;17.75;10.70;;;;;;;;;;5107257;28;20197;-40
2023/10/22 04:46:37;;;;;;;17.20;11.32;;;;;;;;;;5110601;28;20202;-33
2023/10/22 04:49:04;;;;;;;15.68;9.80;;;;;;;;;;5110973;28;20190;-36
2023/10/22 04:51:31;;;;;;;16.27;10.52;;;;;;;;;;5110082;28;20206;-35
2023/10/22 04:53:58;;;;;;;16.92;10.68;;;;;;;;;;5110588;28;20194;-35
2023/10/22 04:56:27;;;;;;;18.48;9.73;;;;;;;;;;5110744;28;20239;-39
2023/10/22 04:58:54;;;;;;;19.95;9.52;;;;;;;;;;5112639;28;20198;-33
2023/10/22 05:01:21;;;;;;;14.32;9.95;;;;;;;;;;5111887;28;20222;-33
2023/10/22 05:03:48;;;;;;;15.93;10.27;;;;;;;;;;5114605;28;20661;-39
2023/10/22 05:06:16;;;;;;;13.25;9.18;;;;;;;;;;5113742;27;20210;-44
2023/10/22 05:08:43;;;;;;;15.77;10.68;;;;;;;;;;5114246;28;20228;-30
2023/10/22 05:11:17;;;;;;;15.98;10.82;;;;;;;;;;5115172;28;20661;-32
2023/10/22 05:13:44;;;;;;;16.27;10.82;;;;;;;;;;5115324;28;20202;-28
2023/10/22 05:16:12;;;;;;;16.20;10.73;;;;;;;;;;5115107;28;20209;-36
2023/10/22 05:18:39;;;;;;;18.30;10.82;;;;;;;;;;5115555;28;20198;-36
2023/10/22 05:21:09;;;;;;;14.25;10.45;;;;;;;;;;5115032;28;20229;-32
2023/10/22 05:23:36;;;;;;;17.50;10.45;;;;;;;;;;5115221;28;20198;-35
2023/10/22 05:26:07;;;;;;;17.73;11.52;;;;;;;;;;5114771;28;20233;-31
2023/10/22 05:28:34;;;;;;;16.13;10.50;;;;;;;;;;5114995;28;20209;-41
2023/10/22 05:31:02;;;;;;;15.98;10.35;;;;;;;;;;5114632;28;20217;-41
2023/10/22 05:33:29;;;;;;;16.27;10.07;;;;;;;;;;5113708;28;20194;-39
2023/10/22 05:35:57;;;;;;;14.93;10.10;;;;;;;;;;5114817;28;20201;-36
2023/10/22 05:38:24;;;;;;;17.20;10.60;;;;;;;;;;5114784;28;20197;-41
2023/10/22 05:40:51;;;;;;;16.40;10.27;;;;;;;;;;5114502;28;20765;-40
2023/10/22 05:43:18;;;;;;;18.35;10.10;;;;;;;;;;5114671;28;20202;-39
2023/10/22 05:45:47;;;;;;;19.42;10.95;;;;;;;;;;5114651;28;20198;-41
2023/10/22 05:48:14;;;;;;;15.57;9.95;;;;;;;;;;5114863;28;20202;-42
2023/10/22 05:50:41;;;;;;;15.45;10.23;;;;;;;;;;5114657;27;20212;-42
2023/10/22 05:53:08;;;;;;;16.08;9.85;;;;;;;;;;5114518;28;20201;-39
2023/10/22 05:55:36;;;;;;;15.77;10.30;;;;;;;;;;5114487;27;20198;-34
2023/10/22 05:58:03;;;;;;;16.42;11.07;;;;;;;;;;5114462;28;20198;-39
2023/10/22 06:00:31;;;;;;;17.65;10.77;;;;;;;;;;5114755;28;20232;-40
2023/10/22 06:02:58;;;;;;;16.42;10.85;;;;;;;;;;5114560;28;20198;-41
2023/10/22 06:05:26;;;;;;;18.25;10.75;;;;;;;;;;5114415;28;20206;-43
2023/10/22 06:07:53;;;;;;;17.30;11.00;;;;;;;;;;5114344;28;20194;-42
2023/10/22 06:10:20;;;;;;;18.38;10.80;;;;;;;;;;5113836;28;20202;-38
2023/10/22 06:12:49;;;;;;;17.80;10.45;;;;;;;;;;5114249;28;20213;-43
2023/10/22 06:15:17;;;;;;;14.23;10.02;;;;;;;;;;5114203;28;20251;-38
2023/10/22 06:17:44;;;;;;;18.55;10.27;;;;;;;;;;5114106;28;20727;-37
2023/10/22 06:20:12;;;;;;;16.33;9.77;;;;;;;;;;5114340;28;20480;-42
2023/10/22 06:22:39;;;;;;;16.52;10.27;;;;;;;;;;5113688;28;20572;-42
2023/10/22 06:25:07;;;;;;;14.70;10.38;;;;;;;;;;5113667;28;20198;-39
2023/10/22 06:27:34;;;;;;;12.50;9.55;;;;;;;;;;5114046;28;20233;-38
2023/10/22 06:30:01;;;;;;;17.58;10.18;;;;;;;;;;5113972;28;20217;-40
2023/10/22 06:32:29;;;;;;;19.92;9.48;;;;;;;;;;5113933;28;20565;-41
2023/10/22 06:34:56;;;;;;;16.75;9.82;;;;;;;;;;5113975;28;20201;-31
2023/10/22 06:37:23;;;;;;;14.55;10.05;;;;;;;;;;5096937;28;20222;-33
2023/10/22 06:39:52;;;;;;;17.23;9.68;;;;;;;;;;5106752;28;20229;-34
2023/10/22 06:42:19;;;;;;;18.25;10.23;;;;;;;;;;5112950;28;20225;-37
2023/10/22 06:44:47;;;;;;;16.70;10.13;;;;;;;;;;5093461;28;20222;-33
2023/10/22 06:47:14;;;;;;;16.77;9.68;;;;;;;;;;5092361;28;20237;-45
2023/10/22 06:49:42;;;;;;;15.63;10.02;;;;;;;;;;5092883;28;20237;-34
2023/10/22 06:52:09;;;;;;;15.75;10.05;;;;;;;;;;5091743;28;20621;-33
2023/10/22 06:54:36;;;;;;;15.43;10.02;;;;;;;;;;5092936;28;20226;-32
2023/10/22 06:57:03;;;;;;;16.63;11.10;;;;;;;;;;5092637;28;20585;-35
2023/10/22 06:59:31;;;;;;;21.63;13.88;;;;;;;;;;5092899;28;20218;-34
2023/10/22 07:01:58;;;;;;;20.27;12.48;;;;;;;;;;5108649;28;20252;-35
2023/10/22 07:04:25;;;;;;;20.35;11.95;;;;;;;;;;5113155;28;20225;-38
2023/10/22 07:06:52;;;;;;;16.98;11.32;;;;;;;;;;5111872;28;20378;-39
2023/10/22 07:09:20;;;;;;;18.00;10.52;;;;;;;;;;5106798;28;20226;-37
2023/10/22 07:11:47;;;;;;;18.35;10.80;;;;;;;;;;5112746;28;20282;-41
2023/10/22 07:14:15;;;;;;;15.45;9.68;;;;;;;;;;5112570;27;20224;-40
2023/10/22 07:16:42;;;;;;;21.77;10.20;;;;;;;;;;5110098;28;20230;-43
2023/10/22 07:19:09;;;;;;;18.42;9.73;;;;;;;;;;5112790;28;20247;-38
2023/10/22 07:21:36;;;;;;;16.60;10.07;;;;;;;;;;5112072;28;20229;-40
2023/10/22 07:24:04;;;;;;;17.08;9.85;;;;;;;;;;5091908;28;20295;-37
2023/10/22 07:26:32;;;;;;;19.17;9.02;;;;;;;;;;5092277;28;20243;-42
2023/10/22 07:28:59;;;;;;;17.33;10.50;;;;;;;;;;5091916;28;20237;-33
2023/10/22 07:31:26;;;;;;;20.40;10.50;;;;;;;;;;5092002;28;20226;-30
2023/10/22 07:33:53;;;;;;;17.10;10.13;;;;;;;;;;5091706;28;20691;-36
2023/10/22 07:36:20;;;;;;;16.38;10.13;;;;;;;;;;5091892;28;20648;-32
2023/10/22 07:38:51;;;;;;;16.80;9.75;;;;;;;;;;5091610;28;20605;-34
2023/10/22 07:41:19;;;;;;;15.68;9.95;;;;;;;;;;5091826;28;20301;-36
2023/10/22 07:43:47;;;;;;;19.40;10.73;;;;;;;;;;5091660;28;20234;-35
2023/10/22 07:46:15;;;;;;;24.85;10.25;;;;;;;;;;5091816;28;20695;-38
2023/10/22 07:48:42;;;;;;;21.67;10.45;;;;;;;;;;5091422;28;20378;-37
2023/10/22 07:51:14;;;;;;;21.85;11.00;;;;;;;;;;5091302;28;20711;-33
2023/10/22 07:53:41;;;;;;;16.65;10.02;;;;;;;;;;5091149;28;20744;-33
2023/10/22 07:56:09;;;;;;;20.88;10.65;;;;;;;;;;5091634;28;20710;-34
2023/10/22 07:58:37;;;;;;;20.05;10.18;;;;;;;;;;5091771;28;20284;-30
2023/10/22 08:01:06;;;;;;;17.88;10.63;;;;;;;;;;5091411;28;20313;-34
2023/10/22 08:03:34;;;;;;;17.70;10.73;;;;;;;;;;5091541;28;20218;-29
2023/10/22 08:06:03;;;;;;;20.52;9.43;;;;;;;;;;5096817;28;20218;-37
2023/10/22 08:08:30;;;;;;;20.02;9.82;;;;;;;;;;5110119;28;20222;-40
2023/10/22 08:10:58;;;;;;;16.90;10.50;;;;;;;;;;5111680;28;20249;-40
2023/10/22 08:13:26;;;;;;;17.52;9.35;;;;;;;;;;5111574;28;20232;-39
2023/10/22 08:15:53;;;;;;;18.20;9.75;;;;;;;;;;5111870;28;20233;-33
2023/10/22 08:18:21;;;;;;;15.38;8.70;;;;;;;;;;5111640;28;20226;-36
2023/10/22 08:20:48;;;;;;;18.13;8.98;;;;;;;;;;5111346;28;20233;-35
2023/10/22 08:23:15;;;;;;;20.83;8.98;;;;;;;;;;5111266;28;20233;-34
2023/10/22 08:25:51;;;;;;;13.38;8.50;;;;;;;;;;5111191;28;20234;-41
2023/10/22 08:28:18;;;;;;;15.40;7.50;;;;;;;;;;5111670;28;20587;-39
2023/10/22 08:30:48;;;;;;;17.55;7.88;;;;;;;;;;5111519;28;20236;-32
2023/10/22 08:33:16;;;;;;;16.10;6.82;;;;;;;;;;5114441;28;20225;-36
2023/10/22 08:35:44;;;;;;;15.57;6.28;;;;;;;;;;5115171;28;20222;-39
2023/10/22 08:38:14;;;;;;;13.18;6.93;;;;;;;;;;5115028;28;20710;-44
2023/10/22 08:40:41;;;;;;;16.45;6.60;;;;;;;;;;5113047;27;20459;-33
2023/10/22 08:43:15;;;;;;;18.75;7.57;;;;;;;;;;5113148;28;20229;-36
2023/10/22 08:45:49;;;;;;;11.95;6.05;;;;;;;;;;5115163;28;20229;-34
2023/10/22 08:48:17;;;;;;;15.13;6.55;;;;;;;;;;5115620;28;20228;-36
2023/10/22 08:50:46;;;;;;;13.85;6.50;;;;;;;;;;5115152;27;20257;-39
2023/10/22 08:53:15;;;;;;;14.52;6.18;;;;;;;;;;5101700;28;20572;-40
2023/10/22 08:55:44;;;;;;;11.43;6.40;;;;;;;;;;5112806;27;20234;-40
2023/10/22 08:58:15;;;;;;;11.43;5.47;;;;;;;;;;5115360;28;20236;-32
2023/10/22 09:00:47;;;;;;;10.93;5.75;;;;;;;;;;5114868;27;20229;-37
2023/10/22 09:03:24;;;;;;;14.38;5.70;;;;;;;;;;5115211;28;20308;-41
2023/10/22 09:05:53;;;;;;;14.55;5.63;;;;;;;;;;5114184;27;20578;-40
2023/10/22 09:08:20;;;;;;;12.65;5.68;;;;;;;;;;5115477;28;20234;-39
2023/10/22 09:10:48;;;;;;;13.50;6.00;;;;;;;;;;5114778;27;20241;-41
2023/10/22 09:13:17;;;;;;;9.85;5.30;;;;;;;;;;5114925;28;20221;-43
2023/10/22 09:15:48;;;;;;;14.73;5.88;;;;;;;;;;5114164;27;20271;-43
2023/10/22 09:18:17;;;;;;;8.13;5.20;;;;;;;;;;5111060;28;20241;-43
2023/10/22 09:20:45;;;;;;;12.93;5.35;;;;;;;;;;5114288;27;20637;-40
2023/10/22 09:23:22;;;;;;;12.02;4.43;;;;;;;;;;5114590;28;20226;-41
2023/10/22 09:25:51;;;;;;;17.80;4.90;;;;;;;;;;5114180;27;20654;-40
2023/10/22 09:28:20;;;;;;;13.65;5.47;;;;;;;;;;5114683;28;20232;-42
2023/10/22 09:30:48;;;;;;;13.50;5.05;;;;;;;;;;5114401;27;20221;-35
2023/10/22 09:33:18;;;;;;;9.85;4.93;;;;;;;;;;5113546;28;20589;-40
2023/10/22 09:35:58;;;;;;;8.70;5.28;;;;;;;;;;5113558;27;20709;-40
2023/10/22 09:38:47;;;;;;;11.52;5.18;;;;;;;;;;5114635;28;20686;-34
2023/10/22 09:41:25;;;;;;;11.43;4.72;;;;;;;;;;5115063;28;20225;-37
2023/10/22 09:43:58;;;;;;;11.02;5.43;;;;;;;;;;5113719;28;20225;-38
2023/10/22 09:46:29;;;;;;;15.20;5.43;;;;;;;;;;5114306;28;20089;-31
2023/10/22 09:48:58;;;;;;;19.60;6.97;;;;;;;;;;5113368;28;20908;-34
2023/10/22 09:51:35;;;;;;;11.55;5.10;;;;;;;;;;5114829;28;20226;-41
2023/10/22 09:54:07;;;;;;;11.23;4.65;;;;;;;;;;5114321;28;20220;-38
2023/10/22 09:56:38;;;;;;;12.82;4.13;;;;;;;;;;5114296;28;20202;-38
2023/10/22 09:59:10;;;;;;;12.40;4.28;;;;;;;;;;5113322;28;20452;-40
2023/10/22 10:01:38;;;;;;;7.63;3.50;;;;;;;;;;5106710;27;20225;-40
2023/10/22 10:04:06;;;;;;;12.77;3.47;;;;;;;;;;5114008;28;20214;-40
2023/10/22 10:06:35;;;;;;;14.93;3.58;;;;;;;;;;5113659;28;20604;-41
2023/10/22 10:09:03;;;;;;;5.63;3.17;;;;;;;;;;5107162;27;20267;-36
2023/10/22 10:11:31;;;;;;;15.30;3.75;;;;;;;;;;5103798;28;20237;-36
2023/10/22 10:14:10;;;;;;;8.30;3.50;;;;;;;;;;5120496;27;20210;-37
2023/10/22 10:16:42;;;;;;;9.07;2.80;;;;;;;;;;5126102;27;20220;-36
2023/10/22 10:19:20;;;;;;;9.27;2.92;;;;;;;;;;5113670;27;20224;-40
2023/10/22 10:21:48;;;;;;;9.30;3.67;;;;;;;;;;5113523;28;20584;-39
2023/10/22 10:24:29;;;;;;;9.88;3.30;;;;;;;;;;5113367;27;20713;-41
2023/10/22 10:26:56;;;;;;;10.20;3.10;;;;;;;;;;5113287;28;20233;-35
2023/10/22 10:29:34;;;;;;;9.73;3.03;;;;;;;;;;5113354;27;20266;-38
2023/10/22 10:32:13;;;;;;;9.10;2.75;;;;;;;;;;5113085;27;20243;-37
2023/10/22 10:34:47;;;;;;;13.07;3.15;;;;;;;;;;5113174;27;20218;-36
2023/10/22 10:37:18;;;;;;;8.55;3.00;;;;;;;;;;5113861;28;20233;-33
2023/10/22 10:39:52;;;;;;;5.45;2.60;;;;;;;;;;5113419;28;20229;-35
2023/10/22 10:42:28;;;;;;;7.97;2.35;;;;;;;;;;5113334;28;20233;-37
2023/10/22 10:44:56;;;;;;;6.18;2.60;;;;;;;;;;5112961;28;20586;-33
2023/10/22 10:47:32;;;;;;;10.32;2.33;;;;;;;;;;5112935;28;20229;-40
2023/10/22 10:50:10;;;;;;;11.23;2.83;;;;;;;;;;5113474;28;20237;-38
2023/10/22 10:52:37;;;;;;;8.07;2.63;;;;;;;;;;5113612;28;20555;-36
2023/10/22 10:55:09;;;;;;;5.88;2.00;;;;;;;;;;5113640;28;20204;-37
2023/10/22 10:57:38;;;;;;;10.77;2.55;;;;;;;;;;5112644;28;20225;-33
2023/10/22 11:00:10;;;;;;;5.68;2.47;;;;;;;;;;5113862;28;20767;-31
2023/10/22 11:02:44;;;;;;;6.85;2.85;;;;;;;;;;5113524;28;20286;-34
2023/10/22 11:05:12;;;;;;;6.95;2.63;;;;;;;;;;5112850;28;20429;-32
2023/10/22 11:07:42;;;;;;;5.15;2.58;;;;;;;;;;5110699;28;20628;-32
2023/10/22 11:10:16;;;;;;;12.68;3.13;;;;;;;;;;5113059;28;20206;-36
2023/10/22 11:12:44;;;;;;;9.55;2.85;;;;;;;;;;5112098;28;20304;-30
2023/10/22 11:24:48;;;;;;;10.38;3.63;;;;;;;;;;4438232;23;20733;-44
2023/10/22 11:27:16;;;;;;;9.00;3.35;;;;;;;;;;4877052;29;20651;-51
2023/10/22 11:29:50;;;;;;;8.90;3.50;;;;;;;;;;4877843;29;20601;-53
2023/10/22 11:32:19;;;;;;;8.77;3.40;;;;;;;;;;4878931;29;20233;-54
2023/10/22 11:34:58;;;;;;;7.53;3.45;;;;;;;;;;4871970;29;20906;-49
2023/10/22 11:37:36;;;;;;;5.55;3.45;;;;;;;;;;4870823;29;20265;-50
2023/10/22 11:40:22;;;;;;;6.70;3.17;;;;;;;;;;4877809;29;20253;-55
2023/10/22 11:42:49;;;;;;;6.43;3.38;;;;;;;;;;4869318;29;20226;-55
2023/10/22 11:45:16;;;;;;;6.95;3.40;;;;;;;;;;4877528;29;20230;-52
2023/10/22 11:47:43;;;;;;;9.95;3.38;;;;;;;;;;4873245;29;20257;-50
2023/10/22 11:50:13;;;;;;;9.85;3.38;;;;;;;;;;4875146;29;20249;-49
2023/10/22 11:52:46;;;;;;;9.27;3.10;;;;;;;;;;4877804;29;20250;-52
2023/10/22 11:55:13;;;;;;;10.93;3.95;;;;;;;;;;4859080;29;20299;-46
2023/10/22 11:58:00;;;;;;;5.63;3.30;;;;;;;;;;4868389;29;20329;-46
2023/10/22 12:00:27;;;;;;;14.77;4.18;;;;;;;;;;4877207;29;20811;-46
2023/10/22 12:02:55;;;;;;;9.95;3.42;;;;;;;;;;4877380;29;20222;-45
2023/10/22 12:05:22;;;;;;;6.13;3.33;;;;;;;;;;4877128;29;20521;-46
2023/10/22 12:07:50;;;;;;;9.25;4.13;;;;;;;;;;4877463;29;20234;-45
2023/10/22 12:10:17;;;;;;;7.00;3.67;;;;;;;;;;4877523;29;20317;-46
2023/10/22 12:12:45;;;;;;;7.10;3.50;;;;;;;;;;4877413;29;20253;-47
2023/10/22 12:15:12;;;;;;;9.30;4.05;;;;;;;;;;4877636;29;20230;-47
2023/10/22 12:17:40;;;;;;;9.73;4.35;;;;;;;;;;4877470;29;20707;-45
2023/10/22 12:20:08;;;;;;;5.68;3.42;;;;;;;;;;4876913;29;20316;-46
2023/10/22 12:22:35;;;;;;;11.05;4.05;;;;;;;;;;4877493;29;20240;-48
2023/10/22 12:25:04;;;;;;;8.77;4.18;;;;;;;;;;4877455;29;20262;-47
2023/10/22 12:27:34;;;;;;;9.27;3.20;;;;;;;;;;4875870;29;20314;-44
2023/10/22 12:30:04;;;;;;;8.60;3.58;;;;;;;;;;4876350;29;20267;-44
2023/10/22 12:32:32;;;;;;;6.65;3.30;;;;;;;;;;4876920;29;20252;-58
2023/10/22 12:35:00;;;;;;;4.53;3.55;;;;;;;;;;4876675;29;20237;-61
2023/10/22 12:37:27;;;;;;;9.95;3.70;;;;;;;;;;4877055;29;20281;-61
2023/10/22 12:39:54;;;;;;;6.82;3.53;;;;;;;;;;4877284;29;20257;-63
2023/10/22 12:42:22;;;;;;;6.05;3.30;;;;;;;;;;4877112;29;20222;-62
2023/10/22 12:44:49;;;;;;;6.68;3.70;;;;;;;;;;4876738;29;20234;-61
2023/10/22 12:47:16;;;;;;;13.02;4.70;;;;;;;;;;4877046;29;20282;-60
2023/10/22 12:49:44;;;;;;;8.60;3.97;;;;;;;;;;4876715;29;20226;-61
2023/10/22 12:52:12;;;;;;;11.90;4.63;;;;;;;;;;4877088;29;20253;-61
2023/10/22 12:54:41;;;;;;;14.40;4.35;;;;;;;;;;4877232;29;20291;-61
2023/10/22 12:57:10;;;;;;;9.55;4.32;;;;;;;;;;4890251;29;20238;-61
2023/10/22 12:59:39;;;;;;;13.48;5.10;;;;;;;;;;4877424;29;20677;-62
2023/10/22 13:02:07;;;;;;;10.73;4.82;;;;;;;;;;4877015;29;20222;-60
2023/10/22 13:04:34;;;;;;;9.98;5.10;;;;;;;;;;4873886;29;20630;-60
2023/10/22 13:07:03;;;;;;;11.23;4.55;;;;;;;;;;4875731;29;20232;-59
2023/10/22 13:09:30;;;;;;;11.90;5.03;;;;;;;;;;4874400;29;20230;-61
2023/10/22 13:11:58;;;;;;;9.32;4.70;;;;;;;;;;4876707;29;20246;-63
2023/10/22 13:14:25;;;;;;;11.45;4.72;;;;;;;;;;4876577;29;20707;-64
2023/10/22 13:16:52;;;;;;;10.25;5.32;;;;;;;;;;4876850;29;20218;-62
2023/10/22 13:19:19;;;;;;;10.13;5.20;;;;;;;;;;4876922;29;20241;-62
2023/10/22 13:21:47;;;;;;;8.88;4.55;;;;;;;;;;4879678;29;20732;-64
2023/10/22 13:24:14;;;;;;;9.73;4.40;;;;;;;;;;4880328;29;20754;-63
2023/10/22 13:26:42;;;;;;;8.00;4.43;;;;;;;;;;4880531;29;20230;-63
2023/10/22 13:29:09;;;;;;;6.43;4.40;;;;;;;;;;4880252;29;20298;-63
2023/10/22 13:31:36;;;;;;;7.35;4.50;;;;;;;;;;4880281;29;20602;-63
2023/10/22 13:34:04;;;;;;;8.75;4.55;;;;;;;;;;4879525;29;20282;-63
2023/10/22 13:36:32;;;;;;;7.70;4.57;;;;;;;;;;4879764;29;20337;-62
2023/10/22 13:39:00;;;;;;;10.27;4.50;;;;;;;;;;4879902;29;20229;-63
2023/10/22 13:41:28;;;;;;;7.90;4.40;;;;;;;;;;4879846;29;20245;-62
2023/10/22 13:43:55;;;;;;;9.80;4.20;;;;;;;;;;4879598;29;20308;-63
2023/10/22 13:46:22;;;;;;;5.93;4.18;;;;;;;;;;4877257;29;20229;-63
2023/10/22 13:48:49;;;;;;;10.63;4.90;;;;;;;;;;4876830;29;20305;-62
2023/10/22 13:51:17;;;;;;;8.73;4.75;;;;;;;;;;4878717;29;20253;-62
2023/10/22 13:53:44;;;;;;;8.80;4.72;;;;;;;;;;4879544;29;20238;-62
2023/10/22 13:56:11;;;;;;;6.88;4.95;;;;;;;;;;4879690;29;20241;-62
2023/10/22 13:58:38;;;;;;;7.57;4.35;;;;;;;;;;4879196;29;20230;-63
2023/10/22 14:01:11;;;;;;;6.57;4.00;;;;;;;;;;4879477;29;20762;-62
2023/10/22 14:03:38;;;;;;;6.78;4.43;;;;;;;;;;4878917;29;20236;-61
2023/10/22 14:06:06;;;;;;;8.55;4.68;;;;;;;;;;4879551;29;20221;-62
2023/10/22 14:08:33;;;;;;;6.88;4.78;;;;;;;;;;4877891;29;20222;-62
2023/10/22 14:11:00;;;;;;;10.77;4.82;;;;;;;;;;4879695;29;20784;-63
2023/10/22 14:13:27;;;;;;;9.07;4.85;;;;;;;;;;4879076;29;20249;-62
2023/10/22 14:16:04;;;;;;;7.07;4.70;;;;;;;;;;4879236;29;20234;-61
2023/10/22 14:18:32;;;;;;;10.30;4.95;;;;;;;;;;4877224;29;20683;-61
2023/10/22 14:21:09;;;;;;;10.85;5.57;;;;;;;;;;4878972;29;20722;-61
2023/10/22 14:23:37;;;;;;;10.63;5.93;;;;;;;;;;4878037;29;20622;-61
2023/10/22 14:26:04;;;;;;;11.13;5.72;;;;;;;;;;4876580;29;20222;-62
2023/10/22 14:28:31;;;;;;;10.85;5.53;;;;;;;;;;4878776;29;20714;-61
2023/10/22 14:31:03;;;;;;;8.98;6.18;;;;;;;;;;4878673;29;20241;-60
2023/10/22 14:33:31;;;;;;;11.48;6.40;;;;;;;;;;4890825;29;20238;-61
2023/10/22 14:36:03;;;;;;;9.35;6.47;;;;;;;;;;4878753;29;20226;-61
2023/10/22 14:38:31;;;;;;;30.55;17.70;;;;;;;;;;4876643;29;20218;-63
2023/10/22 14:41:02;;;;;;;13.93;10.02;;;;;;;;;;4878811;29;20277;-61
2023/10/22 14:43:30;;;;;;;9.57;6.63;;;;;;;;;;4876623;29;20245;-64
2023/10/22 14:46:01;;;;;;;9.02;7.45;;;;;;;;;;4877928;29;20695;-62